sensor_id;sensor_type;location;lat;lon;timestamp;P1;durP1;ratioP1;P2;durP2;ratioP2
11984;SDS011;6052;53.246;10.368;2023-06-22T00:01:35;2.25;;;1.83;;
11984;SDS011;6052;53.246;10.368;2023-06-22T00:04:04;2.45;;;2.25;;
11984;SDS011;6052;53.246;10.368;2023-06-22T00:06:34;5.07;;;2.20;;
11984;SDS011;6052;53.246;10.368;2023-06-22T00:09:03;2.40;;;2.08;;
11984;SDS011;6052;53.246;10.368;2023-06-22T00:11:36;2.80;;;2.10;;
11984;SDS011;6052;53.246;10.368;2023-06-22T00:14:08;3.03;;;2.00;;
11984;SDS011;6052;53.246;10.368;2023-06-22T00:16:37;2.22;;;1.95;;
11984;SDS011;6052;53.246;10.368;2023-06-22T00:19:09;2.58;;;1.83;;
11984;SDS011;6052;53.246;10.368;2023-06-22T00:21:39;2.83;;;2.38;;
11984;SDS011;6052;53.246;10.368;2023-06-22T00:24:08;4.60;;;1.92;;
11984;SDS011;6052;53.246;10.368;2023-06-22T00:26:38;2.28;;;1.80;;
11984;SDS011;6052;53.246;10.368;2023-06-22T00:29:10;2.42;;;2.22;;
11984;SDS011;6052;53.246;10.368;2023-06-22T00:31:39;2.22;;;2.03;;
11984;SDS011;6052;53.246;10.368;2023-06-22T00:34:09;2.28;;;1.98;;
11984;SDS011;6052;53.246;10.368;2023-06-22T00:36:38;3.53;;;2.58;;
11984;SDS011;6052;53.246;10.368;2023-06-22T00:39:08;2.83;;;2.40;;
11984;SDS011;6052;53.246;10.368;2023-06-22T00:41:38;2.65;;;2.30;;
11984;SDS011;6052;53.246;10.368;2023-06-22T00:44:10;2.30;;;2.10;;
11984;SDS011;6052;53.246;10.368;2023-06-22T00:46:39;2.25;;;2.05;;
11984;SDS011;6052;53.246;10.368;2023-06-22T00:49:09;2.85;;;2.30;;
11984;SDS011;6052;53.246;10.368;2023-06-22T00:51:38;2.40;;;2.10;;
11984;SDS011;6052;53.246;10.368;2023-06-22T00:54:14;3.75;;;2.78;;
11984;SDS011;6052;53.246;10.368;2023-06-22T00:56:51;2.75;;;2.15;;
11984;SDS011;6052;53.246;10.368;2023-06-22T00:59:26;2.53;;;2.00;;
11984;SDS011;6052;53.246;10.368;2023-06-22T01:01:59;3.83;;;2.40;;
11984;SDS011;6052;53.246;10.368;2023-06-22T01:04:34;3.03;;;2.42;;
11984;SDS011;6052;53.246;10.368;2023-06-22T01:07:06;3.13;;;2.13;;
11984;SDS011;6052;53.246;10.368;2023-06-22T01:09:46;2.85;;;2.05;;
11984;SDS011;6052;53.246;10.368;2023-06-22T01:12:25;3.33;;;2.20;;
11984;SDS011;6052;53.246;10.368;2023-06-22T01:15:04;2.90;;;1.90;;
11984;SDS011;6052;53.246;10.368;2023-06-22T01:17:38;4.93;;;2.15;;
11984;SDS011;6052;53.246;10.368;2023-06-22T01:20:10;2.38;;;1.88;;
11984;SDS011;6052;53.246;10.368;2023-06-22T01:22:45;2.08;;;1.88;;
11984;SDS011;6052;53.246;10.368;2023-06-22T01:25:26;2.55;;;1.90;;
11984;SDS011;6052;53.246;10.368;2023-06-22T01:28:03;3.03;;;2.22;;
11984;SDS011;6052;53.246;10.368;2023-06-22T01:30:44;2.65;;;2.20;;
11984;SDS011;6052;53.246;10.368;2023-06-22T01:33:15;3.08;;;2.30;;
11984;SDS011;6052;53.246;10.368;2023-06-22T01:35:45;2.20;;;2.00;;
11984;SDS011;6052;53.246;10.368;2023-06-22T01:38:15;2.67;;;2.10;;
11984;SDS011;6052;53.246;10.368;2023-06-22T01:40:45;2.65;;;2.13;;
11984;SDS011;6052;53.246;10.368;2023-06-22T01:43:14;3.25;;;2.40;;
11984;SDS011;6052;53.246;10.368;2023-06-22T01:45:47;1.95;;;1.65;;
11984;SDS011;6052;53.246;10.368;2023-06-22T01:48:16;2.38;;;1.80;;
11984;SDS011;6052;53.246;10.368;2023-06-22T01:50:52;3.95;;;2.03;;
11984;SDS011;6052;53.246;10.368;2023-06-22T01:53:22;2.22;;;2.03;;
11984;SDS011;6052;53.246;10.368;2023-06-22T01:55:52;2.10;;;1.90;;
11984;SDS011;6052;53.246;10.368;2023-06-22T01:58:22;2.35;;;2.13;;
11984;SDS011;6052;53.246;10.368;2023-06-22T02:00:58;2.75;;;2.13;;
11984;SDS011;6052;53.246;10.368;2023-06-22T02:03:32;3.40;;;2.15;;
11984;SDS011;6052;53.246;10.368;2023-06-22T02:06:07;5.03;;;2.45;;
11984;SDS011;6052;53.246;10.368;2023-06-22T02:08:40;2.42;;;2.05;;
11984;SDS011;6052;53.246;10.368;2023-06-22T02:11:10;2.50;;;2.05;;
11984;SDS011;6052;53.246;10.368;2023-06-22T02:13:44;3.42;;;2.42;;
11984;SDS011;6052;53.246;10.368;2023-06-22T02:16:17;2.45;;;2.25;;
11984;SDS011;6052;53.246;10.368;2023-06-22T02:18:47;2.55;;;2.00;;
11984;SDS011;6052;53.246;10.368;2023-06-22T02:21:19;3.05;;;2.40;;
11984;SDS011;6052;53.246;10.368;2023-06-22T02:23:51;2.42;;;1.95;;
11984;SDS011;6052;53.246;10.368;2023-06-22T02:26:21;2.90;;;2.08;;
11984;SDS011;6052;53.246;10.368;2023-06-22T02:28:50;2.97;;;2.13;;
11984;SDS011;6052;53.246;10.368;2023-06-22T02:31:22;3.33;;;2.20;;
11984;SDS011;6052;53.246;10.368;2023-06-22T02:33:57;3.08;;;2.30;;
11984;SDS011;6052;53.246;10.368;2023-06-22T02:36:27;3.72;;;2.55;;
11984;SDS011;6052;53.246;10.368;2023-06-22T02:38:57;2.63;;;2.42;;
11984;SDS011;6052;53.246;10.368;2023-06-22T02:41:27;2.88;;;2.28;;
11984;SDS011;6052;53.246;10.368;2023-06-22T02:43:56;3.03;;;2.42;;
11984;SDS011;6052;53.246;10.368;2023-06-22T02:46:28;3.47;;;2.72;;
11984;SDS011;6052;53.246;10.368;2023-06-22T02:48:58;6.15;;;3.10;;
11984;SDS011;6052;53.246;10.368;2023-06-22T02:51:27;2.45;;;2.00;;
11984;SDS011;6052;53.246;10.368;2023-06-22T02:53:58;2.90;;;2.50;;
11984;SDS011;6052;53.246;10.368;2023-06-22T02:56:28;3.72;;;2.53;;
11984;SDS011;6052;53.246;10.368;2023-06-22T02:58:57;4.47;;;2.53;;
11984;SDS011;6052;53.246;10.368;2023-06-22T03:01:31;3.67;;;2.63;;
11984;SDS011;6052;53.246;10.368;2023-06-22T03:04:06;2.58;;;2.10;;
11984;SDS011;6052;53.246;10.368;2023-06-22T03:06:36;3.03;;;2.25;;
11984;SDS011;6052;53.246;10.368;2023-06-22T03:09:07;2.90;;;2.53;;
11984;SDS011;6052;53.246;10.368;2023-06-22T03:11:37;2.90;;;2.40;;
11984;SDS011;6052;53.246;10.368;2023-06-22T03:14:06;4.47;;;2.60;;
11984;SDS011;6052;53.246;10.368;2023-06-22T03:16:38;2.63;;;2.40;;
11984;SDS011;6052;53.246;10.368;2023-06-22T03:19:08;3.03;;;2.60;;
11984;SDS011;6052;53.246;10.368;2023-06-22T03:21:37;2.78;;;2.30;;
11984;SDS011;6052;53.246;10.368;2023-06-22T03:24:07;2.83;;;2.40;;
11984;SDS011;6052;53.246;10.368;2023-06-22T03:26:36;2.85;;;2.40;;
11984;SDS011;6052;53.246;10.368;2023-06-22T03:29:06;3.58;;;2.92;;
11984;SDS011;6052;53.246;10.368;2023-06-22T03:31:38;3.17;;;2.75;;
11984;SDS011;6052;53.246;10.368;2023-06-22T03:34:07;3.45;;;2.80;;
11984;SDS011;6052;53.246;10.368;2023-06-22T03:36:36;3.90;;;2.50;;
11984;SDS011;6052;53.246;10.368;2023-06-22T03:39:06;4.53;;;3.03;;
11984;SDS011;6052;53.246;10.368;2023-06-22T03:41:35;3.70;;;2.80;;
11984;SDS011;6052;53.246;10.368;2023-06-22T03:44:05;4.40;;;2.47;;
11984;SDS011;6052;53.246;10.368;2023-06-22T03:46:39;4.70;;;2.58;;
11984;SDS011;6052;53.246;10.368;2023-06-22T03:49:09;3.63;;;2.70;;
11984;SDS011;6052;53.246;10.368;2023-06-22T03:51:38;4.88;;;2.67;;
11984;SDS011;6052;53.246;10.368;2023-06-22T03:54:08;2.95;;;2.65;;
11984;SDS011;6052;53.246;10.368;2023-06-22T03:56:37;3.47;;;2.78;;
11984;SDS011;6052;53.246;10.368;2023-06-22T03:59:07;4.00;;;2.85;;
11984;SDS011;6052;53.246;10.368;2023-06-22T04:01:36;3.90;;;2.60;;
11984;SDS011;6052;53.246;10.368;2023-06-22T04:04:08;2.83;;;2.50;;
11984;SDS011;6052;53.246;10.368;2023-06-22T04:06:38;2.78;;;2.40;;
11984;SDS011;6052;53.246;10.368;2023-06-22T04:09:07;3.58;;;2.38;;
11984;SDS011;6052;53.246;10.368;2023-06-22T04:11:37;2.80;;;2.53;;
11984;SDS011;6052;53.246;10.368;2023-06-22T04:14:06;3.67;;;2.95;;
11984;SDS011;6052;53.246;10.368;2023-06-22T04:16:36;4.50;;;2.78;;
11984;SDS011;6052;53.246;10.368;2023-06-22T04:19:05;4.57;;;2.70;;
11984;SDS011;6052;53.246;10.368;2023-06-22T04:21:43;4.00;;;2.83;;
11984;SDS011;6052;53.246;10.368;2023-06-22T04:24:15;2.40;;;2.20;;
11984;SDS011;6052;53.246;10.368;2023-06-22T04:26:44;3.22;;;2.78;;
11984;SDS011;6052;53.246;10.368;2023-06-22T04:29:14;3.22;;;2.83;;
11984;SDS011;6052;53.246;10.368;2023-06-22T04:31:43;3.75;;;2.95;;
11984;SDS011;6052;53.246;10.368;2023-06-22T04:34:17;4.25;;;2.90;;
11984;SDS011;6052;53.246;10.368;2023-06-22T04:36:49;4.57;;;3.05;;
11984;SDS011;6052;53.246;10.368;2023-06-22T04:39:18;3.22;;;2.90;;
11984;SDS011;6052;53.246;10.368;2023-06-22T04:41:47;4.35;;;3.08;;
11984;SDS011;6052;53.246;10.368;2023-06-22T04:44:18;3.42;;;2.72;;
11984;SDS011;6052;53.246;10.368;2023-06-22T04:46:54;3.50;;;3.10;;
11984;SDS011;6052;53.246;10.368;2023-06-22T04:49:27;3.85;;;3.33;;
11984;SDS011;6052;53.246;10.368;2023-06-22T04:52:02;3.33;;;2.90;;
11984;SDS011;6052;53.246;10.368;2023-06-22T04:54:33;3.33;;;2.70;;
11984;SDS011;6052;53.246;10.368;2023-06-22T04:57:04;4.10;;;3.20;;
11984;SDS011;6052;53.246;10.368;2023-06-22T04:59:37;2.85;;;2.50;;
11984;SDS011;6052;53.246;10.368;2023-06-22T05:02:08;4.78;;;2.88;;
11984;SDS011;6052;53.246;10.368;2023-06-22T05:04:38;4.57;;;3.03;;
11984;SDS011;6052;53.246;10.368;2023-06-22T05:07:11;3.75;;;2.88;;
11984;SDS011;6052;53.246;10.368;2023-06-22T05:09:40;6.78;;;4.20;;
11984;SDS011;6052;53.246;10.368;2023-06-22T05:12:09;5.10;;;2.80;;
11984;SDS011;6052;53.246;10.368;2023-06-22T05:14:39;4.13;;;2.72;;
11984;SDS011;6052;53.246;10.368;2023-06-22T05:17:08;3.47;;;2.83;;
11984;SDS011;6052;53.246;10.368;2023-06-22T05:19:41;5.00;;;2.92;;
11984;SDS011;6052;53.246;10.368;2023-06-22T05:22:14;4.18;;;3.00;;
11984;SDS011;6052;53.246;10.368;2023-06-22T05:24:44;4.93;;;3.22;;
11984;SDS011;6052;53.246;10.368;2023-06-22T05:27:13;3.65;;;2.78;;
11984;SDS011;6052;53.246;10.368;2023-06-22T05:29:43;3.50;;;2.55;;
11984;SDS011;6052;53.246;10.368;2023-06-22T05:32:12;4.70;;;2.78;;
11984;SDS011;6052;53.246;10.368;2023-06-22T05:34:42;4.03;;;2.75;;
11984;SDS011;6052;53.246;10.368;2023-06-22T05:37:14;4.20;;;2.90;;
11984;SDS011;6052;53.246;10.368;2023-06-22T05:39:43;5.30;;;2.97;;
11984;SDS011;6052;53.246;10.368;2023-06-22T05:42:13;4.20;;;2.90;;
11984;SDS011;6052;53.246;10.368;2023-06-22T05:44:42;4.05;;;2.72;;
11984;SDS011;6052;53.246;10.368;2023-06-22T05:47:13;4.85;;;2.90;;
11984;SDS011;6052;53.246;10.368;2023-06-22T05:49:42;7.25;;;2.70;;
11984;SDS011;6052;53.246;10.368;2023-06-22T05:52:15;3.40;;;2.85;;
11984;SDS011;6052;53.246;10.368;2023-06-22T05:54:44;3.58;;;3.00;;
11984;SDS011;6052;53.246;10.368;2023-06-22T05:57:13;6.75;;;2.88;;
11984;SDS011;6052;53.246;10.368;2023-06-22T05:59:43;3.55;;;2.67;;
11984;SDS011;6052;53.246;10.368;2023-06-22T06:02:12;3.90;;;3.00;;
11984;SDS011;6052;53.246;10.368;2023-06-22T06:04:42;4.65;;;3.05;;
11984;SDS011;6052;53.246;10.368;2023-06-22T06:07:11;4.43;;;2.97;;
11984;SDS011;6052;53.246;10.368;2023-06-22T06:09:43;4.57;;;2.75;;
11984;SDS011;6052;53.246;10.368;2023-06-22T06:12:14;3.30;;;2.60;;
11984;SDS011;6052;53.246;10.368;2023-06-22T06:14:43;5.70;;;2.97;;
11984;SDS011;6052;53.246;10.368;2023-06-22T06:17:13;3.88;;;2.83;;
11984;SDS011;6052;53.246;10.368;2023-06-22T06:19:43;2.97;;;2.47;;
11984;SDS011;6052;53.246;10.368;2023-06-22T06:22:12;3.10;;;2.80;;
11984;SDS011;6052;53.246;10.368;2023-06-22T06:24:44;4.25;;;2.70;;
11984;SDS011;6052;53.246;10.368;2023-06-22T06:27:14;4.60;;;2.30;;
11984;SDS011;6052;53.246;10.368;2023-06-22T06:29:44;5.57;;;2.63;;
11984;SDS011;6052;53.246;10.368;2023-06-22T06:32:15;3.25;;;2.50;;
11984;SDS011;6052;53.246;10.368;2023-06-22T06:34:44;4.53;;;2.38;;
11984;SDS011;6052;53.246;10.368;2023-06-22T06:37:14;2.50;;;2.30;;
11984;SDS011;6052;53.246;10.368;2023-06-22T06:39:46;3.15;;;2.35;;
11984;SDS011;6052;53.246;10.368;2023-06-22T06:42:15;3.80;;;2.20;;
11984;SDS011;6052;53.246;10.368;2023-06-22T06:44:45;3.40;;;2.78;;
11984;SDS011;6052;53.246;10.368;2023-06-22T06:47:15;3.50;;;2.78;;
11984;SDS011;6052;53.246;10.368;2023-06-22T06:49:44;3.70;;;2.90;;
11984;SDS011;6052;53.246;10.368;2023-06-22T06:52:14;2.35;;;2.05;;
11984;SDS011;6052;53.246;10.368;2023-06-22T06:54:46;3.65;;;2.55;;
11984;SDS011;6052;53.246;10.368;2023-06-22T06:57:15;4.40;;;2.15;;
11984;SDS011;6052;53.246;10.368;2023-06-22T06:59:45;3.83;;;2.78;;
11984;SDS011;6052;53.246;10.368;2023-06-22T07:02:14;3.55;;;2.53;;
11984;SDS011;6052;53.246;10.368;2023-06-22T07:04:44;2.35;;;2.05;;
11984;SDS011;6052;53.246;10.368;2023-06-22T07:07:13;3.95;;;2.58;;
11984;SDS011;6052;53.246;10.368;2023-06-22T07:09:46;2.10;;;1.83;;
11984;SDS011;6052;53.246;10.368;2023-06-22T07:12:15;3.03;;;2.00;;
11984;SDS011;6052;53.246;10.368;2023-06-22T07:14:45;2.47;;;1.92;;
11984;SDS011;6052;53.246;10.368;2023-06-22T07:17:14;2.63;;;2.40;;
11984;SDS011;6052;53.246;10.368;2023-06-22T07:19:43;3.85;;;2.25;;
11984;SDS011;6052;53.246;10.368;2023-06-22T07:22:13;2.20;;;2.00;;
11984;SDS011;6052;53.246;10.368;2023-06-22T07:24:42;2.10;;;1.90;;
11984;SDS011;6052;53.246;10.368;2023-06-22T07:27:14;4.65;;;3.65;;
11984;SDS011;6052;53.246;10.368;2023-06-22T07:29:45;5.18;;;2.10;;
11984;SDS011;6052;53.246;10.368;2023-06-22T07:32:15;3.80;;;2.17;;
11984;SDS011;6052;53.246;10.368;2023-06-22T07:34:45;4.65;;;2.25;;
11984;SDS011;6052;53.246;10.368;2023-06-22T07:37:14;2.33;;;2.00;;
11984;SDS011;6052;53.246;10.368;2023-06-22T07:39:43;4.65;;;2.67;;
11984;SDS011;6052;53.246;10.368;2023-06-22T07:42:16;4.35;;;2.30;;
11984;SDS011;6052;53.246;10.368;2023-06-22T07:44:45;3.20;;;1.70;;
11984;SDS011;6052;53.246;10.368;2023-06-22T07:47:17;3.70;;;2.60;;
11984;SDS011;6052;53.246;10.368;2023-06-22T07:49:51;2.83;;;2.20;;
11984;SDS011;6052;53.246;10.368;2023-06-22T07:52:22;5.55;;;2.22;;
11984;SDS011;6052;53.246;10.368;2023-06-22T07:54:51;5.47;;;2.40;;
11984;SDS011;6052;53.246;10.368;2023-06-22T07:57:23;1.90;;;1.80;;
11984;SDS011;6052;53.246;10.368;2023-06-22T07:59:58;2.97;;;2.17;;
11984;SDS011;6052;53.246;10.368;2023-06-22T08:02:30;2.53;;;1.70;;
11984;SDS011;6052;53.246;10.368;2023-06-22T08:04:59;2.67;;;2.05;;
11984;SDS011;6052;53.246;10.368;2023-06-22T08:07:45;3.40;;;2.47;;
11984;SDS011;6052;53.246;10.368;2023-06-22T08:10:15;3.97;;;2.33;;
11984;SDS011;6052;53.246;10.368;2023-06-22T08:12:48;6.40;;;2.30;;
11984;SDS011;6052;53.246;10.368;2023-06-22T08:15:18;2.33;;;2.10;;
11984;SDS011;6052;53.246;10.368;2023-06-22T08:17:48;5.20;;;2.17;;
11984;SDS011;6052;53.246;10.368;2023-06-22T08:20:19;3.40;;;2.60;;
11984;SDS011;6052;53.246;10.368;2023-06-22T08:22:48;2.75;;;2.50;;
11984;SDS011;6052;53.246;10.368;2023-06-22T08:25:18;2.53;;;1.98;;
11984;SDS011;6052;53.246;10.368;2023-06-22T08:27:50;3.53;;;2.13;;
11984;SDS011;6052;53.246;10.368;2023-06-22T08:30:19;9.50;;;2.33;;
11984;SDS011;6052;53.246;10.368;2023-06-22T08:32:49;16.35;;;2.90;;
11984;SDS011;6052;53.246;10.368;2023-06-22T08:35:18;2.55;;;1.90;;
11984;SDS011;6052;53.246;10.368;2023-06-22T08:37:48;2.22;;;2.00;;
11984;SDS011;6052;53.246;10.368;2023-06-22T08:40:22;2.38;;;2.10;;
11984;SDS011;6052;53.246;10.368;2023-06-22T08:42:54;3.67;;;2.30;;
11984;SDS011;6052;53.246;10.368;2023-06-22T08:45:24;4.47;;;2.17;;
11984;SDS011;6052;53.246;10.368;2023-06-22T08:47:56;3.67;;;2.35;;
11984;SDS011;6052;53.246;10.368;2023-06-22T08:50:26;3.28;;;2.30;;
11984;SDS011;6052;53.246;10.368;2023-06-22T08:52:55;2.67;;;2.00;;
11984;SDS011;6052;53.246;10.368;2023-06-22T08:55:25;3.75;;;2.10;;
11984;SDS011;6052;53.246;10.368;2023-06-22T08:57:57;3.83;;;2.55;;
11984;SDS011;6052;53.246;10.368;2023-06-22T09:00:27;3.47;;;2.10;;
11984;SDS011;6052;53.246;10.368;2023-06-22T09:02:59;3.13;;;2.10;;
11984;SDS011;6052;53.246;10.368;2023-06-22T09:05:28;4.70;;;2.60;;
11984;SDS011;6052;53.246;10.368;2023-06-22T09:07:58;2.83;;;2.10;;
11984;SDS011;6052;53.246;10.368;2023-06-22T09:10:29;2.97;;;2.38;;
11984;SDS011;6052;53.246;10.368;2023-06-22T09:13:01;3.38;;;2.22;;
11984;SDS011;6052;53.246;10.368;2023-06-22T09:15:30;2.53;;;2.20;;
11984;SDS011;6052;53.246;10.368;2023-06-22T09:18:01;3.85;;;2.20;;
11984;SDS011;6052;53.246;10.368;2023-06-22T09:20:30;6.47;;;2.13;;
11984;SDS011;6052;53.246;10.368;2023-06-22T09:23:00;2.40;;;2.00;;
11984;SDS011;6052;53.246;10.368;2023-06-22T09:25:29;2.13;;;1.92;;
11984;SDS011;6052;53.246;10.368;2023-06-22T09:28:01;3.30;;;1.98;;
11984;SDS011;6052;53.246;10.368;2023-06-22T09:30:31;2.35;;;2.08;;
11984;SDS011;6052;53.246;10.368;2023-06-22T09:33:00;2.30;;;2.10;;
11984;SDS011;6052;53.246;10.368;2023-06-22T09:35:29;3.55;;;2.13;;
11984;SDS011;6052;53.246;10.368;2023-06-22T09:37:59;3.55;;;2.00;;
11984;SDS011;6052;53.246;10.368;2023-06-22T09:40:28;2.50;;;1.95;;
11984;SDS011;6052;53.246;10.368;2023-06-22T09:43:01;3.22;;;2.05;;
11984;SDS011;6052;53.246;10.368;2023-06-22T09:45:31;4.60;;;2.10;;
11984;SDS011;6052;53.246;10.368;2023-06-22T09:48:00;2.72;;;2.15;;
11984;SDS011;6052;53.246;10.368;2023-06-22T09:50:29;3.15;;;2.28;;
11984;SDS011;6052;53.246;10.368;2023-06-22T09:52:59;3.20;;;1.90;;
11984;SDS011;6052;53.246;10.368;2023-06-22T09:55:28;2.90;;;2.05;;
11984;SDS011;6052;53.246;10.368;2023-06-22T09:57:58;3.10;;;1.90;;
11984;SDS011;6052;53.246;10.368;2023-06-22T10:00:30;3.28;;;1.73;;
11984;SDS011;6052;53.246;10.368;2023-06-22T10:02:59;2.72;;;2.03;;
11984;SDS011;6052;53.246;10.368;2023-06-22T10:05:29;3.22;;;2.20;;
11984;SDS011;6052;53.246;10.368;2023-06-22T10:07:59;3.13;;;2.20;;
11984;SDS011;6052;53.246;10.368;2023-06-22T10:10:28;2.35;;;2.00;;
11984;SDS011;6052;53.246;10.368;2023-06-22T10:13:02;2.25;;;1.83;;
11984;SDS011;6052;53.246;10.368;2023-06-22T10:15:38;2.85;;;2.00;;
11984;SDS011;6052;53.246;10.368;2023-06-22T10:18:08;2.70;;;2.03;;
11984;SDS011;6052;53.246;10.368;2023-06-22T10:20:37;2.00;;;1.80;;
11984;SDS011;6052;53.246;10.368;2023-06-22T10:23:07;2.38;;;2.10;;
11984;SDS011;6052;53.246;10.368;2023-06-22T10:25:36;2.60;;;2.08;;
11984;SDS011;6052;53.246;10.368;2023-06-22T10:28:06;2.88;;;2.10;;
11984;SDS011;6052;53.246;10.368;2023-06-22T10:30:35;2.22;;;2.00;;
11984;SDS011;6052;53.246;10.368;2023-06-22T10:33:07;4.32;;;2.30;;
11984;SDS011;6052;53.246;10.368;2023-06-22T10:35:37;3.20;;;2.03;;
11984;SDS011;6052;53.246;10.368;2023-06-22T10:38:07;2.88;;;2.03;;
11984;SDS011;6052;53.246;10.368;2023-06-22T10:40:36;2.75;;;2.25;;
11984;SDS011;6052;53.246;10.368;2023-06-22T10:43:06;2.70;;;2.13;;
11984;SDS011;6052;53.246;10.368;2023-06-22T10:45:35;3.13;;;2.50;;
11984;SDS011;6052;53.246;10.368;2023-06-22T10:48:07;3.35;;;2.20;;
11984;SDS011;6052;53.246;10.368;2023-06-22T10:50:37;3.45;;;2.50;;
11984;SDS011;6052;53.246;10.368;2023-06-22T10:53:06;3.05;;;2.53;;
11984;SDS011;6052;53.246;10.368;2023-06-22T10:55:36;3.78;;;2.55;;
11984;SDS011;6052;53.246;10.368;2023-06-22T10:58:22;2.90;;;2.60;;
11984;SDS011;6052;53.246;10.368;2023-06-22T11:00:51;3.80;;;2.40;;
11984;SDS011;6052;53.246;10.368;2023-06-22T11:03:23;5.18;;;2.88;;
11984;SDS011;6052;53.246;10.368;2023-06-22T11:05:53;2.97;;;2.40;;
11984;SDS011;6052;53.246;10.368;2023-06-22T11:08:22;2.83;;;2.47;;
11984;SDS011;6052;53.246;10.368;2023-06-22T11:10:52;4.30;;;2.80;;
11984;SDS011;6052;53.246;10.368;2023-06-22T11:13:21;20.95;;;3.97;;
11984;SDS011;6052;53.246;10.368;2023-06-22T11:15:51;3.10;;;2.42;;
11984;SDS011;6052;53.246;10.368;2023-06-22T11:18:20;3.13;;;2.47;;
11984;SDS011;6052;53.246;10.368;2023-06-22T11:20:52;3.88;;;2.35;;
11984;SDS011;6052;53.246;10.368;2023-06-22T11:23:22;4.45;;;2.25;;
11984;SDS011;6052;53.246;10.368;2023-06-22T11:25:54;3.65;;;2.60;;
11984;SDS011;6052;53.246;10.368;2023-06-22T11:28:24;2.88;;;2.28;;
11984;SDS011;6052;53.246;10.368;2023-06-22T11:30:53;3.88;;;2.63;;
11984;SDS011;6052;53.246;10.368;2023-06-22T11:33:25;5.25;;;2.40;;
11984;SDS011;6052;53.246;10.368;2023-06-22T11:35:57;2.47;;;2.22;;
11984;SDS011;6052;53.246;10.368;2023-06-22T11:38:27;3.20;;;2.58;;
11984;SDS011;6052;53.246;10.368;2023-06-22T11:40:57;5.22;;;2.70;;
11984;SDS011;6052;53.246;10.368;2023-06-22T11:43:27;14.02;;;3.50;;
11984;SDS011;6052;53.246;10.368;2023-06-22T11:45:56;3.15;;;2.85;;
11984;SDS011;6052;53.246;10.368;2023-06-22T11:48:26;5.15;;;2.72;;
11984;SDS011;6052;53.246;10.368;2023-06-22T11:50:58;2.80;;;2.38;;
11984;SDS011;6052;53.246;10.368;2023-06-22T11:53:30;9.80;;;2.78;;
11984;SDS011;6052;53.246;10.368;2023-06-22T11:55:59;4.20;;;3.05;;
11984;SDS011;6052;53.246;10.368;2023-06-22T11:58:29;6.20;;;3.03;;
11984;SDS011;6052;53.246;10.368;2023-06-22T12:00:58;3.30;;;2.67;;
11984;SDS011;6052;53.246;10.368;2023-06-22T12:03:28;3.33;;;2.80;;
11984;SDS011;6052;53.246;10.368;2023-06-22T12:06:00;3.78;;;2.67;;
11984;SDS011;6052;53.246;10.368;2023-06-22T12:08:29;3.53;;;2.95;;
11984;SDS011;6052;53.246;10.368;2023-06-22T12:10:59;3.80;;;2.97;;
11984;SDS011;6052;53.246;10.368;2023-06-22T12:13:28;3.28;;;2.85;;
11984;SDS011;6052;53.246;10.368;2023-06-22T12:15:58;3.67;;;2.75;;
11984;SDS011;6052;53.246;10.368;2023-06-22T12:18:27;2.63;;;2.25;;
11984;SDS011;6052;53.246;10.368;2023-06-22T12:20:56;2.95;;;2.58;;
11984;SDS011;6052;53.246;10.368;2023-06-22T12:23:28;3.35;;;2.70;;
11984;SDS011;6052;53.246;10.368;2023-06-22T12:25:58;3.10;;;2.80;;
11984;SDS011;6052;53.246;10.368;2023-06-22T12:28:28;3.60;;;2.85;;
11984;SDS011;6052;53.246;10.368;2023-06-22T12:30:57;3.92;;;3.13;;
11984;SDS011;6052;53.246;10.368;2023-06-22T12:33:28;3.92;;;3.05;;
11984;SDS011;6052;53.246;10.368;2023-06-22T12:35:58;3.60;;;3.10;;
11984;SDS011;6052;53.246;10.368;2023-06-22T12:38:30;3.92;;;3.00;;
11984;SDS011;6052;53.246;10.368;2023-06-22T12:41:00;3.17;;;2.78;;
11984;SDS011;6052;53.246;10.368;2023-06-22T12:43:29;4.03;;;3.13;;
11984;SDS011;6052;53.246;10.368;2023-06-22T12:45:59;3.25;;;2.90;;
11984;SDS011;6052;53.246;10.368;2023-06-22T12:48:28;3.70;;;2.85;;
11984;SDS011;6052;53.246;10.368;2023-06-22T12:50:57;3.50;;;2.97;;
11984;SDS011;6052;53.246;10.368;2023-06-22T12:53:29;4.55;;;3.00;;
11984;SDS011;6052;53.246;10.368;2023-06-22T12:55:59;3.30;;;3.00;;
11984;SDS011;6052;53.246;10.368;2023-06-22T12:58:28;4.30;;;2.85;;
11984;SDS011;6052;53.246;10.368;2023-06-22T13:00:58;4.35;;;2.78;;
11984;SDS011;6052;53.246;10.368;2023-06-22T13:03:28;5.20;;;3.08;;
11984;SDS011;6052;53.246;10.368;2023-06-22T13:05:58;5.97;;;2.70;;
11984;SDS011;6052;53.246;10.368;2023-06-22T13:08:30;3.08;;;2.78;;
11984;SDS011;6052;53.246;10.368;2023-06-22T13:11:19;4.15;;;2.67;;
11984;SDS011;6052;53.246;10.368;2023-06-22T13:13:48;5.07;;;2.83;;
11984;SDS011;6052;53.246;10.368;2023-06-22T13:16:18;3.90;;;2.90;;
11984;SDS011;6052;53.246;10.368;2023-06-22T13:18:47;3.45;;;2.72;;
11984;SDS011;6052;53.246;10.368;2023-06-22T13:21:17;3.33;;;2.67;;
11984;SDS011;6052;53.246;10.368;2023-06-22T13:23:48;4.07;;;2.63;;
11984;SDS011;6052;53.246;10.368;2023-06-22T13:26:18;3.60;;;2.67;;
11984;SDS011;6052;53.246;10.368;2023-06-22T13:28:48;2.97;;;2.45;;
11984;SDS011;6052;53.246;10.368;2023-06-22T13:31:17;3.42;;;2.75;;
11984;SDS011;6052;53.246;10.368;2023-06-22T13:33:47;3.55;;;2.72;;
11984;SDS011;6052;53.246;10.368;2023-06-22T13:36:18;3.60;;;3.03;;
11984;SDS011;6052;53.246;10.368;2023-06-22T13:38:52;3.70;;;3.20;;
11984;SDS011;6052;53.246;10.368;2023-06-22T13:41:21;4.90;;;3.00;;
11984;SDS011;6052;53.246;10.368;2023-06-22T13:43:51;9.82;;;3.08;;
11984;SDS011;6052;53.246;10.368;2023-06-22T13:46:20;2.90;;;2.40;;
11984;SDS011;6052;53.246;10.368;2023-06-22T13:48:50;3.65;;;2.92;;
11984;SDS011;6052;53.246;10.368;2023-06-22T13:51:22;4.13;;;2.67;;
11984;SDS011;6052;53.246;10.368;2023-06-22T13:53:54;4.43;;;2.95;;
11984;SDS011;6052;53.246;10.368;2023-06-22T13:56:23;4.95;;;3.00;;
11984;SDS011;6052;53.246;10.368;2023-06-22T13:58:53;3.13;;;2.70;;
11984;SDS011;6052;53.246;10.368;2023-06-22T14:01:22;4.72;;;3.10;;
11984;SDS011;6052;53.246;10.368;2023-06-22T14:03:52;5.45;;;3.22;;
11984;SDS011;6052;53.246;10.368;2023-06-22T14:06:21;3.90;;;3.00;;
11984;SDS011;6052;53.246;10.368;2023-06-22T14:08:50;4.25;;;2.80;;
11984;SDS011;6052;53.246;10.368;2023-06-22T14:11:22;3.47;;;2.80;;
11984;SDS011;6052;53.246;10.368;2023-06-22T14:13:52;3.63;;;2.70;;
11984;SDS011;6052;53.246;10.368;2023-06-22T14:16:21;4.72;;;2.55;;
11984;SDS011;6052;53.246;10.368;2023-06-22T14:18:51;4.82;;;2.95;;
11984;SDS011;6052;53.246;10.368;2023-06-22T14:21:23;4.68;;;3.13;;
11984;SDS011;6052;53.246;10.368;2023-06-22T14:23:53;3.13;;;2.83;;
11984;SDS011;6052;53.246;10.368;2023-06-22T14:26:25;4.45;;;2.97;;
11984;SDS011;6052;53.246;10.368;2023-06-22T14:28:54;3.85;;;3.03;;
11984;SDS011;6052;53.246;10.368;2023-06-22T14:31:23;4.72;;;2.80;;
11984;SDS011;6052;53.246;10.368;2023-06-22T14:33:53;3.13;;;2.78;;
11984;SDS011;6052;53.246;10.368;2023-06-22T14:36:22;3.22;;;2.70;;
11984;SDS011;6052;53.246;10.368;2023-06-22T14:38:52;4.28;;;3.00;;
11984;SDS011;6052;53.246;10.368;2023-06-22T14:41:21;3.63;;;2.95;;
11984;SDS011;6052;53.246;10.368;2023-06-22T14:43:53;3.33;;;2.50;;
11984;SDS011;6052;53.246;10.368;2023-06-22T14:46:22;4.43;;;3.00;;
11984;SDS011;6052;53.246;10.368;2023-06-22T14:48:52;3.55;;;2.80;;
11984;SDS011;6052;53.246;10.368;2023-06-22T14:51:22;3.15;;;2.72;;
11984;SDS011;6052;53.246;10.368;2023-06-22T14:53:51;3.58;;;3.08;;
11984;SDS011;6052;53.246;10.368;2023-06-22T14:56:20;3.53;;;3.22;;
11984;SDS011;6052;53.246;10.368;2023-06-22T14:58:52;3.75;;;3.17;;
11984;SDS011;6052;53.246;10.368;2023-06-22T15:01:22;3.95;;;3.10;;
11984;SDS011;6052;53.246;10.368;2023-06-22T15:03:51;3.97;;;3.08;;
11984;SDS011;6052;53.246;10.368;2023-06-22T15:06:21;3.67;;;3.28;;
11984;SDS011;6052;53.246;10.368;2023-06-22T15:08:50;3.25;;;2.92;;